createdAt,value
2019-04-29T00:02:14.121Z,8.40
2019-04-29T00:04:44.506Z,8.50
2019-04-29T00:07:15.087Z,8.50
2019-04-29T00:09:45.628Z,8.50
2019-04-29T00:12:16.223Z,8.50
2019-04-29T00:14:50.980Z,8.50
2019-04-29T00:17:26.485Z,8.50
2019-04-29T00:20:01.148Z,8.50
2019-04-29T00:22:31.691Z,8.50
2019-04-29T00:25:02.314Z,8.50
2019-04-29T00:27:32.745Z,8.50
2019-04-29T00:30:03.315Z,8.50
2019-04-29T00:32:33.671Z,8.60
2019-04-29T00:35:04.356Z,8.60
2019-04-29T00:37:45.909Z,8.70
2019-04-29T00:40:21.584Z,8.70
2019-04-29T00:42:56.182Z,8.70
2019-04-29T00:45:26.901Z,8.70
2019-04-29T00:47:57.445Z,8.70
2019-04-29T00:50:28.074Z,8.70
2019-04-29T00:52:58.483Z,8.70
2019-04-29T00:55:29.205Z,8.70
2019-04-29T00:57:59.681Z,8.70
2019-04-29T01:00:34.769Z,8.70
2019-04-29T01:03:05.168Z,8.70
2019-04-29T01:05:35.878Z,8.70
2019-04-29T01:08:06.341Z,8.70
2019-04-29T01:10:37.265Z,8.70
2019-04-29T01:13:07.932Z,8.70
2019-04-29T01:15:38.635Z,8.70
2019-04-29T01:18:09.164Z,8.70
2019-04-29T01:20:39.673Z,8.70
2019-04-29T01:23:10.276Z,8.70
2019-04-29T01:25:41.016Z,8.70
2019-04-29T01:28:15.533Z,8.70
2019-04-29T01:30:56.567Z,8.70
2019-04-29T01:33:27.121Z,8.70
2019-04-29T01:36:16.715Z,8.70
2019-04-29T01:38:48.813Z,8.70
2019-04-29T01:41:19.065Z,8.70
2019-04-29T01:43:54.650Z,8.70
2019-04-29T01:46:25.125Z,8.70
2019-04-29T01:48:55.500Z,8.70
2019-04-29T01:51:26.164Z,8.70
2019-04-29T01:53:56.650Z,8.70
2019-04-29T01:56:27.341Z,8.60
2019-04-29T01:58:57.933Z,8.70
2019-04-29T02:01:28.340Z,8.60
2019-04-29T02:03:58.715Z,8.70
2019-04-29T02:06:29.208Z,8.60
2019-04-29T02:08:59.824Z,8.60
2019-04-29T02:11:30.296Z,8.60
2019-04-29T02:14:00.757Z,8.60
2019-04-29T02:16:31.209Z,8.60
2019-04-29T02:19:01.620Z,8.60
2019-04-29T02:21:32.178Z,8.70
2019-04-29T02:24:11.264Z,8.70
2019-04-29T02:26:41.729Z,8.70
2019-04-29T02:29:12.341Z,8.70
2019-04-29T02:31:43.622Z,8.70
2019-04-29T02:34:14.052Z,8.70
2019-04-29T02:36:44.571Z,8.70
2019-04-29T02:39:26.149Z,8.70
2019-04-29T02:42:04.918Z,8.70
2019-04-29T02:44:35.534Z,8.70
2019-04-29T02:47:06.180Z,8.70
2019-04-29T02:49:36.530Z,8.70
2019-04-29T02:52:06.894Z,8.70
2019-04-29T02:54:37.390Z,8.80
2019-04-29T02:59:44.117Z,8.80
2019-04-29T03:02:21.188Z,8.80
2019-04-29T03:04:56.731Z,8.80
2019-04-29T03:07:27.146Z,8.80
2019-04-29T03:09:57.688Z,8.80
2019-04-29T03:12:28.332Z,8.80
2019-04-29T03:14:58.924Z,8.80
2019-04-29T03:17:29.493Z,8.80
2019-04-29T03:20:04.989Z,8.90
2019-04-29T03:22:35.929Z,8.80
2019-04-29T03:25:06.577Z,8.80
2019-04-29T03:27:37.168Z,8.80
2019-04-29T03:30:07.558Z,8.80
2019-04-29T03:32:38.129Z,8.80
2019-04-29T03:35:08.663Z,8.80
2019-04-29T03:37:39.273Z,8.80
2019-04-29T03:40:10.097Z,8.90
2019-04-29T03:42:40.508Z,8.80
2019-04-29T03:45:10.989Z,8.80
2019-04-29T03:47:41.558Z,8.80
2019-04-29T03:50:12.202Z,8.80
2019-04-29T03:52:42.618Z,8.80
2019-04-29T03:55:13.042Z,8.90
2019-04-29T03:57:43.682Z,8.80
2019-04-29T04:00:14.419Z,8.90
2019-04-29T04:02:49.038Z,8.80
2019-04-29T04:05:30.722Z,8.90
2019-04-29T04:08:08.112Z,8.90
2019-04-29T04:10:38.543Z,8.90
2019-04-29T04:13:09.177Z,8.90
2019-04-29T04:15:39.711Z,8.90
2019-04-29T04:18:16.374Z,9.00
2019-04-29T04:20:47.267Z,9.00
2019-04-29T04:23:17.885Z,9.00
2019-04-29T04:25:48.368Z,9.00
2019-04-29T04:28:18.998Z,9.00
2019-04-29T04:30:49.289Z,9.00
2019-04-29T04:33:19.789Z,9.00
2019-04-29T04:35:50.537Z,9.00
2019-04-29T04:38:21.130Z,9.10
2019-04-29T04:41:00.655Z,9.10
2019-04-29T04:43:31.192Z,9.10
2019-04-29T04:46:01.801Z,9.10
2019-04-29T04:48:32.341Z,9.10
2019-04-29T04:51:02.821Z,9.10
2019-04-29T04:53:33.240Z,9.10
2019-04-29T04:56:03.725Z,9.10
2019-04-29T04:58:34.336Z,9.00
2019-04-29T05:01:04.969Z,9.10
2019-04-29T05:03:35.548Z,9.00
2019-04-29T05:06:06.033Z,9.10
2019-04-29T05:08:36.481Z,9.10
2019-04-29T05:11:06.977Z,9.10
2019-04-29T05:13:37.361Z,9.10
2019-04-29T05:16:07.964Z,9.10
2019-04-29T05:18:38.225Z,9.10
2019-04-29T05:21:08.586Z,9.10
2019-04-29T05:26:08.645Z,9.10
2019-04-29T05:28:39.068Z,9.10
2019-04-29T05:31:09.505Z,9.10
2019-04-29T05:33:39.866Z,9.10
2019-04-29T05:36:15.169Z,9.10
2019-04-29T05:38:49.885Z,9.10
2019-04-29T05:41:21.334Z,9.10
2019-04-29T05:44:10.176Z,9.10
2019-04-29T05:46:55.141Z,9.10
2019-04-29T05:49:29.660Z,9.10
2019-04-29T05:53:11.643Z,9.10
2019-04-29T05:55:38.432Z,9.10
2019-04-29T05:58:12.713Z,9.10
2019-04-29T06:00:47.677Z,9.10
2019-04-29T06:03:18.181Z,9.10
2019-04-29T06:05:48.736Z,9.20
2019-04-29T06:08:19.272Z,9.20
2019-04-29T06:10:49.782Z,9.30
2019-04-29T06:15:49.872Z,9.30
2019-04-29T06:18:22.254Z,9.30
2019-04-29T06:20:50.779Z,9.30
2019-04-29T06:23:23.208Z,9.30
2019-04-29T06:25:51.681Z,9.30
2019-04-29T06:28:26.409Z,9.30
2019-04-29T06:30:52.493Z,9.30
2019-04-29T06:33:24.322Z,9.30
2019-04-29T06:35:56.697Z,9.30
2019-04-29T06:38:24.265Z,9.30
2019-04-29T06:40:54.742Z,9.30
2019-04-29T06:43:28.871Z,9.30
2019-04-29T06:45:55.724Z,9.30
2019-04-29T06:48:26.068Z,9.30
2019-04-29T06:50:56.625Z,9.30
2019-04-29T06:53:27.124Z,9.30
2019-04-29T06:55:57.617Z,9.30
2019-04-29T06:58:28.213Z,9.40
2019-04-29T07:01:01.138Z,9.40
2019-04-29T07:03:29.057Z,9.40
2019-04-29T07:05:59.609Z,9.40
2019-04-29T07:08:30.192Z,9.40
2019-04-29T07:13:30.233Z,9.50
2019-04-29T07:16:00.910Z,9.50
2019-04-29T07:18:31.385Z,9.60
2019-04-29T07:23:31.544Z,9.60
2019-04-29T07:26:02.224Z,9.60
2019-04-29T07:28:32.524Z,9.60
2019-04-29T07:31:03.310Z,9.60
2019-04-29T07:33:33.321Z,9.60
2019-04-29T07:36:10.715Z,9.70
2019-04-29T07:38:41.102Z,9.70
2019-04-29T07:41:04.733Z,9.70
2019-04-29T07:43:38.689Z,9.70
2019-04-29T07:46:10.564Z,9.80
2019-04-29T07:51:10.717Z,9.70
2019-04-29T07:53:45.597Z,9.70
2019-04-29T07:56:11.572Z,9.70
2019-04-29T07:58:41.904Z,9.80
2019-04-29T08:01:12.397Z,9.80
2019-04-29T08:03:42.809Z,9.80
2019-04-29T08:06:13.405Z,9.90
2019-04-29T08:08:54.408Z,9.90
2019-04-29T08:11:14.913Z,9.80
2019-04-29T08:13:45.390Z,9.80
2019-04-29T08:16:17.132Z,9.90
2019-04-29T08:18:49.640Z,9.90
2019-04-29T08:21:16.678Z,9.90
2019-04-29T08:23:46.960Z,9.90
2019-04-29T08:31:21.087Z,9.90
2019-04-29T08:33:48.488Z,10.00
2019-04-29T08:36:17.812Z,10.00
2019-04-29T08:38:48.181Z,10.10
2019-04-29T08:41:21.027Z,10.10
2019-04-29T08:44:54.751Z,10.20
2019-04-29T08:47:30.446Z,10.10
2019-04-29T08:49:55.433Z,10.10
2019-04-29T08:52:25.862Z,10.10
2019-04-29T08:54:57.371Z,10.10
2019-04-29T08:57:26.756Z,10.20
2019-04-29T08:59:57.364Z,10.20
2019-04-29T09:02:35.282Z,10.20
2019-04-29T09:04:58.217Z,10.30
2019-04-29T09:07:28.706Z,10.20
2019-04-29T09:10:01.766Z,10.20
2019-04-29T09:12:29.702Z,10.20
2019-04-29T09:15:00.133Z,10.20
2019-04-29T09:17:30.349Z,10.20
2019-04-29T09:20:00.691Z,10.20
2019-04-29T09:22:31.522Z,10.30
2019-04-29T09:25:06.820Z,10.20
2019-04-29T09:27:40.764Z,10.30
2019-04-29T09:30:08.852Z,10.30
2019-04-29T09:32:39.981Z,10.30
2019-04-29T09:35:09.861Z,10.40
2019-04-29T09:37:40.244Z,10.50
2019-04-29T09:40:11.345Z,10.60
2019-04-29T09:42:50.319Z,10.70
2019-04-29T09:45:25.933Z,10.80
2019-04-29T09:47:56.285Z,10.80
2019-04-29T09:50:28.502Z,10.80
2019-04-29T09:52:57.037Z,10.80
2019-04-29T09:55:27.416Z,10.80
2019-04-29T09:57:57.815Z,10.70
2019-04-29T10:00:51.445Z,10.60
2019-04-29T10:03:29.963Z,10.60
2019-04-29T10:06:04.380Z,10.60
2019-04-29T10:08:34.776Z,10.80
2019-04-29T10:11:05.384Z,10.90
2019-04-29T10:13:35.663Z,11.00
2019-04-29T10:16:13.049Z,11.00
2019-04-29T10:18:47.781Z,11.00
2019-04-29T10:21:21.388Z,11.10
2019-04-29T10:23:48.529Z,11.10
2019-04-29T10:26:19.128Z,11.10
2019-04-29T10:28:56.205Z,11.10
2019-04-29T10:31:26.640Z,11.20
2019-04-29T10:33:57.250Z,11.10
2019-04-29T10:36:27.640Z,11.10
2019-04-29T10:39:00.301Z,11.10
2019-04-29T10:41:35.983Z,11.10
2019-04-29T10:44:14.570Z,11.00
2019-04-29T10:46:52.883Z,10.90
2019-04-29T10:49:34.714Z,10.90
2019-04-29T10:52:04.669Z,10.80
2019-04-29T10:54:34.538Z,10.80
2019-04-29T10:57:05.235Z,10.90
2019-04-29T10:59:40.469Z,11.00
2019-04-29T11:02:32.406Z,11.00
2019-04-29T11:05:11.841Z,10.90
2019-04-29T11:07:39.720Z,11.00
2019-04-29T11:10:24.818Z,11.00
2019-04-29T11:12:48.344Z,11.00
2019-04-29T11:15:19.033Z,11.00
2019-04-29T11:17:58.482Z,10.90
2019-04-29T11:20:21.641Z,10.90
2019-04-29T11:22:58.317Z,10.90
2019-04-29T11:25:42.699Z,10.80
2019-04-29T11:28:16.109Z,10.90
2019-04-29T11:30:43.761Z,10.90
2019-04-29T11:33:19.303Z,10.90
2019-04-29T11:35:53.723Z,10.90
2019-04-29T11:38:24.305Z,10.80
2019-04-29T11:40:54.989Z,10.80
2019-04-29T11:43:25.514Z,10.80
2019-04-29T11:45:56.520Z,10.80
2019-04-29T11:48:26.981Z,10.90
2019-04-29T11:51:01.606Z,10.90
2019-04-29T11:53:31.860Z,10.90
2019-04-29T11:56:02.379Z,10.90
2019-04-29T11:58:38.723Z,10.90
2019-04-29T12:01:37.342Z,10.90
2019-04-29T12:03:56.470Z,10.90
2019-04-29T12:06:24.406Z,10.90
2019-04-29T12:08:55.229Z,10.90
2019-04-29T12:11:28.621Z,10.90
2019-04-29T12:14:27.363Z,10.90
2019-04-29T12:17:03.766Z,11.00
2019-04-29T12:22:08.979Z,11.10
2019-04-29T12:24:35.796Z,11.10
2019-04-29T12:29:36.028Z,11.10
2019-04-29T12:32:26.691Z,11.10
2019-04-29T12:35:07.917Z,11.20
2019-04-29T12:38:50.692Z,11.20
2019-04-29T12:42:22.942Z,11.20
2019-04-29T12:44:57.259Z,11.10
2019-04-29T12:47:30.812Z,11.10
2019-04-29T12:50:01.273Z,11.20
2019-04-29T12:52:31.580Z,11.30
2019-04-29T12:57:31.577Z,11.40
2019-04-29T13:00:01.992Z,11.50
2019-04-29T13:02:38.149Z,11.60
2019-04-29T13:08:44.828Z,11.60
2019-04-29T13:11:19.176Z,11.50
2019-04-29T13:13:46.032Z,11.50
2019-04-29T13:16:22.860Z,11.60
2019-04-29T13:19:10.663Z,11.60
2019-04-29T13:21:28.890Z,11.60
2019-04-29T13:24:12.773Z,11.60
2019-04-29T13:26:33.265Z,11.60
2019-04-29T13:29:01.610Z,11.60
2019-04-29T13:31:38.616Z,11.70
2019-04-29T13:34:09.198Z,11.80
2019-04-29T13:39:01.997Z,12.10
2019-04-29T13:41:32.389Z,12.30
2019-04-29T13:44:07.293Z,12.50
2019-04-29T13:46:39.553Z,12.60
2019-04-29T13:50:21.644Z,12.70
2019-04-29T13:52:47.301Z,12.70
2019-04-29T13:55:45.333Z,12.30
2019-04-29T13:57:49.562Z,12.60
2019-04-29T14:00:26.898Z,12.50
2019-04-29T14:03:01.575Z,12.30
2019-04-29T14:05:32.415Z,12.40
2019-04-29T14:08:03.990Z,12.50
2019-04-29T14:10:32.989Z,12.60
2019-04-29T14:13:11.724Z,12.80
2019-04-29T14:15:38.022Z,12.90
2019-04-29T14:18:06.878Z,12.70
2019-04-29T14:20:34.932Z,12.70
2019-04-29T14:25:35.073Z,12.60
2019-04-29T14:28:05.550Z,12.40
2019-04-29T14:30:38.825Z,12.30
2019-04-29T14:33:06.681Z,12.30
2019-04-29T14:35:48.274Z,12.30
2019-04-29T14:38:15.705Z,12.30
2019-04-29T14:40:46.193Z,12.30
2019-04-29T14:43:28.411Z,12.20
2019-04-29T14:48:04.950Z,12.20
2019-04-29T14:50:35.376Z,12.10
2019-04-29T14:53:05.765Z,12.10
2019-04-29T14:55:36.277Z,12.10
2019-04-29T15:01:39.213Z,12.10
2019-04-29T15:04:18.296Z,12.20
2019-04-29T15:09:16.986Z,12.30
2019-04-29T15:11:50.430Z,12.10
2019-04-29T15:14:27.970Z,12.10
2019-04-29T15:17:02.141Z,12.10
2019-04-29T15:22:10.575Z,12.30
2019-04-29T15:27:10.650Z,12.20
2019-04-29T15:29:40.962Z,12.30
2019-04-29T15:32:11.413Z,12.30
2019-04-29T15:34:43.919Z,12.40
2019-04-29T15:37:12.405Z,12.40
2019-04-29T15:39:46.065Z,12.50
2019-04-29T15:42:13.262Z,12.50
2019-04-29T15:44:43.662Z,12.40
2019-04-29T15:47:14.238Z,12.40
2019-04-29T15:49:44.573Z,12.30
2019-04-29T15:52:16.025Z,12.20
2019-04-29T15:54:45.911Z,12.10
2019-04-29T15:57:16.282Z,12.10
2019-04-29T16:02:16.678Z,12.00
2019-04-29T16:04:51.365Z,12.00
2019-04-29T16:07:26.652Z,12.00
2019-04-29T16:12:45.409Z,12.10
2019-04-29T16:15:13.814Z,12.10
2019-04-29T16:17:44.236Z,12.10
2019-04-29T16:20:14.672Z,12.10
2019-04-29T16:22:45.184Z,12.10
2019-04-29T16:25:15.722Z,12.10
2019-04-29T16:27:53.051Z,12.10
2019-04-29T16:30:18.984Z,12.10
2019-04-29T16:32:47.649Z,12.00
2019-04-29T16:35:23.192Z,11.80
2019-04-29T16:37:48.537Z,11.70
2019-04-29T16:40:19.017Z,11.70
2019-04-29T16:42:54.490Z,11.60
2019-04-29T16:45:28.234Z,11.60
2019-04-29T16:47:58.701Z,11.50
2019-04-29T16:50:29.117Z,11.50
2019-04-29T16:52:59.425Z,11.40
2019-04-29T16:55:29.824Z,11.40
2019-04-29T16:58:07.730Z,11.30
2019-04-29T17:00:32.462Z,11.30
2019-04-29T17:03:02.848Z,11.20
2019-04-29T17:05:33.252Z,11.10
2019-04-29T17:08:09.477Z,11.10
2019-04-29T17:10:43.272Z,11.10
2019-04-29T17:13:16.755Z,11.20
2019-04-29T17:15:44.614Z,11.20
2019-04-29T17:18:14.918Z,11.20
2019-04-29T17:20:45.365Z,11.20
2019-04-29T17:23:23.859Z,11.20
2019-04-29T17:25:46.237Z,11.20
2019-04-29T17:28:29.193Z,11.30
2019-04-29T17:33:07.924Z,11.30
2019-04-29T17:35:17.510Z,12.10
2019-04-29T17:35:42.961Z,11.30
2019-04-29T17:38:09.361Z,11.30
2019-04-29T17:40:50.611Z,11.30
2019-04-29T17:43:15.241Z,11.20
2019-04-29T17:45:52.576Z,11.20
2019-04-29T17:48:34.016Z,11.20
2019-04-29T17:51:07.360Z,11.20
2019-04-29T17:53:42.164Z,11.20
2019-04-29T17:56:32.331Z,11.20
2019-04-29T17:59:06.748Z,11.20
2019-04-29T18:01:45.201Z,11.10
2019-04-29T18:04:22.449Z,11.10
2019-04-29T18:07:08.199Z,11.10
2019-04-29T18:09:39.383Z,11.10
2019-04-29T18:12:26.980Z,11.10
2019-04-29T18:14:57.460Z,11.10
2019-04-29T18:17:31.298Z,11.10
2019-04-29T18:21:09.456Z,11.10
2019-04-29T18:23:51.568Z,11.10
2019-04-29T18:26:25.786Z,11.00
2019-04-29T18:28:56.821Z,11.00
2019-04-29T18:31:30.278Z,11.10
2019-04-29T18:33:58.314Z,11.00
2019-04-29T18:36:27.854Z,11.00
2019-04-29T18:38:58.264Z,11.00
2019-04-29T18:41:28.917Z,11.00
2019-04-29T18:44:02.916Z,11.00
2019-04-29T18:46:29.766Z,11.00
2019-04-29T18:49:02.779Z,11.00
2019-04-29T18:51:30.538Z,11.00
2019-04-29T18:54:00.858Z,11.00
2019-04-29T18:56:32.250Z,11.00
2019-04-29T18:59:01.568Z,11.10
2019-04-29T19:01:32.653Z,11.10
2019-04-29T19:04:16.355Z,11.00
2019-04-29T19:06:41.228Z,11.00
2019-04-29T19:09:17.756Z,11.00
2019-04-29T19:11:42.425Z,11.00
2019-04-29T19:14:12.935Z,11.20
2019-04-29T19:16:43.425Z,11.10
2019-04-29T19:19:15.414Z,11.20
2019-04-29T19:21:45.532Z,11.20
2019-04-29T19:24:16.190Z,11.10
2019-04-29T19:26:45.936Z,11.10
2019-04-29T19:29:16.473Z,11.10
2019-04-29T19:31:49.793Z,11.10
2019-04-29T19:34:18.802Z,11.00
2019-04-29T19:36:50.790Z,11.00
2019-04-29T19:39:21.701Z,11.00
2019-04-29T19:41:51.548Z,11.00
2019-04-29T19:44:20.497Z,11.00
2019-04-29T19:46:51.109Z,11.00
2019-04-29T19:49:21.668Z,11.00
2019-04-29T19:51:52.021Z,11.00
2019-04-29T19:54:24.720Z,10.90
2019-04-29T19:56:55.964Z,10.90
2019-04-29T19:59:25.623Z,10.90
2019-04-29T20:02:03.974Z,10.90
2019-04-29T20:04:32.009Z,10.90
2019-04-29T20:07:07.331Z,10.90
2019-04-29T20:09:34.055Z,10.90
2019-04-29T20:12:11.848Z,10.90
2019-04-29T20:14:36.978Z,10.90
2019-04-29T20:17:15.051Z,10.90
2019-04-29T20:19:55.498Z,10.90
2019-04-29T20:22:20.210Z,10.80
2019-04-29T20:27:21.119Z,10.80
2019-04-29T20:29:51.131Z,10.80
2019-04-29T20:32:22.445Z,10.70
2019-04-29T20:34:51.997Z,10.70
2019-04-29T20:37:22.649Z,10.70
2019-04-29T20:39:59.030Z,10.70
2019-04-29T20:42:25.668Z,10.70
2019-04-29T20:44:55.170Z,10.70
2019-04-29T20:47:37.249Z,10.60
2019-04-29T20:49:55.444Z,10.60
2019-04-29T20:52:31.023Z,10.60
2019-04-29T20:55:02.620Z,10.70
2019-04-29T20:57:32.017Z,10.70
2019-04-29T21:00:02.644Z,10.70
2019-04-29T21:05:02.973Z,10.70
2019-04-29T21:07:33.310Z,10.70
2019-04-29T21:10:06.966Z,10.70
2019-04-29T21:12:39.496Z,10.70
2019-04-29T21:15:55.572Z,10.80
2019-04-29T21:18:53.200Z,10.90
2019-04-29T21:21:17.838Z,10.80
2019-04-29T21:26:46.057Z,10.80
2019-04-29T21:29:19.264Z,10.80
2019-04-29T21:31:46.064Z,10.80
2019-04-29T21:34:17.540Z,10.80
2019-04-29T21:37:25.855Z,10.80
2019-04-29T21:40:18.725Z,10.70
2019-04-29T21:42:49.841Z,10.60
2019-04-29T21:45:20.548Z,10.60
2019-04-29T21:47:53.197Z,10.60
2019-04-29T21:50:21.829Z,10.60
2019-04-29T21:52:56.981Z,10.60
2019-04-29T21:55:25.919Z,10.60
2019-04-29T21:57:54.438Z,10.60
2019-04-29T22:00:24.430Z,10.60
2019-04-29T22:02:55.418Z,10.70
2019-04-29T22:05:25.194Z,10.70
2019-04-29T22:07:55.540Z,10.70
2019-04-29T22:10:29.017Z,10.70
2019-04-29T22:13:01.792Z,10.70
2019-04-29T22:15:32.679Z,10.60
2019-04-29T22:18:01.277Z,10.60
2019-04-29T22:20:29.005Z,10.60
2019-04-29T22:22:59.936Z,10.50
2019-04-29T22:25:30.569Z,10.50
2019-04-29T22:28:01.273Z,10.50
2019-04-29T22:30:31.813Z,10.50
2019-04-29T22:33:02.255Z,10.50
2019-04-29T22:35:36.572Z,10.60
2019-04-29T22:38:03.326Z,10.50
2019-04-29T22:40:40.729Z,10.50
2019-04-29T22:43:14.228Z,10.50
2019-04-29T22:45:42.408Z,10.40
2019-04-29T22:48:18.965Z,10.30
2019-04-29T22:50:45.487Z,10.30
2019-04-29T22:53:15.284Z,10.30
2019-04-29T22:55:45.576Z,10.30
2019-04-29T22:58:16.153Z,10.30
2019-04-29T23:00:46.866Z,10.30
2019-04-29T23:03:17.449Z,10.20
2019-04-29T23:05:48.272Z,10.20
2019-04-29T23:08:18.813Z,10.20
2019-04-29T23:10:49.592Z,10.20
2019-04-29T23:13:20.080Z,10.20
2019-04-29T23:15:53.824Z,10.30
2019-04-29T23:18:26.785Z,10.30
2019-04-29T23:20:59.558Z,10.30
2019-04-29T23:23:33.413Z,10.30
2019-04-29T23:26:04.197Z,10.20
2019-04-29T23:28:32.253Z,10.20
2019-04-29T23:31:02.752Z,10.00
2019-04-29T23:33:33.286Z,10.00
2019-04-29T23:36:03.889Z,10.00
2019-04-29T23:38:34.441Z,9.90
2019-04-29T23:41:05.121Z,9.70
2019-04-29T23:43:35.700Z,9.70
2019-04-29T23:46:06.240Z,9.70
2019-04-29T23:48:39.612Z,9.90
2019-04-29T23:51:07.500Z,10.00
2019-04-29T23:53:38.062Z,10.10
2019-04-29T23:56:09.644Z,10.30
2019-04-29T23:58:46.794Z,10.20
